Terminal Aerodrome Forecast
Issued by NWS

Home | Current Version | Previous Version | Text Only | Print | Product List | Glossary On
Versions: 1 2 3 4 5 6 7 8 9 10 11 12 13 14 15 16 17 18 19 20 21 22 23 24
699
FTUS43 KDLH 241126
TAFHIB
TAF
KHIB 241126Z 2412/2512 13003KT 1/4SM FG OVC006
      TEMPO 2412/2414 5SM BR SCT006 BKN015
     FM241400 VRB03KT 4SM BR BKN015
     FM241600 29008KT P6SM SCT025 BKN080
     FM241800 28011G20KT P6SM SCT080
     FM250000 28006KT P6SM SCT060=

USA.gov is the U.S. government's official web portal to all federal, state and local government web resources and services.